Time;durP1;ratioP1;P1;durP2;ratioP2;P2;SDS_P1;SDS_P2;PMS_P1;PMS_P2;Temp;Humidity;BMP_temperature;BMP_pressure;BME280_temperature;BME280_humidity;BME280_pressure;Samples;Min_cycle;Max_cycle;Signal;HPM_P1;HPM_P2
2024/04/24 00:01:57;;;;;;;7.38;2.30;;;;;;;;;;5421309;26;20003;-67
2024/04/24 00:04:24;;;;;;;5.43;2.60;;;;;;;;;;5408266;26;20025;-66
2024/04/24 00:06:50;;;;;;;3.67;2.30;;;;;;;;;;5426435;26;20022;-66
2024/04/24 00:09:16;;;;;;;1.92;1.80;;;;;;;;;;5421904;26;19995;-67
2024/04/24 00:11:43;;;;;;;3.42;2.53;;;;;;;;;;5383749;26;19999;-67
2024/04/24 00:14:09;;;;;;;6.13;3.45;;;;;;;;;;5417743;26;20013;-66
2024/04/24 00:16:35;;;;;;;6.70;2.60;;;;;;;;;;5422548;26;19999;-66
2024/04/24 00:19:02;;;;;;;5.57;2.30;;;;;;;;;;5419473;26;19996;-66
2024/04/24 00:21:28;;;;;;;2.15;1.95;;;;;;;;;;5392694;26;20003;-65
2024/04/24 00:23:54;;;;;;;5.05;2.38;;;;;;;;;;5417829;26;20338;-66
2024/04/24 00:26:20;;;;;;;5.07;2.03;;;;;;;;;;5426126;26;20003;-66
2024/04/24 00:28:46;;;;;;;2.63;2.30;;;;;;;;;;5419975;26;19999;-66
2024/04/24 00:31:12;;;;;;;5.68;2.65;;;;;;;;;;5390006;26;20018;-66
2024/04/24 00:33:38;;;;;;;2.30;2.10;;;;;;;;;;5391182;26;20010;-66
2024/04/24 00:36:05;;;;;;;5.13;2.38;;;;;;;;;;5416009;26;20010;-66
2024/04/24 00:38:31;;;;;;;11.32;2.40;;;;;;;;;;5419991;26;20061;-66
2024/04/24 00:40:57;;;;;;;3.08;2.50;;;;;;;;;;5417444;26;20349;-67
2024/04/24 00:43:23;;;;;;;6.85;2.75;;;;;;;;;;5409874;26;20053;-66
2024/04/24 00:45:49;;;;;;;3.22;2.45;;;;;;;;;;5416691;26;21045;-65
2024/04/24 00:48:15;;;;;;;6.65;2.65;;;;;;;;;;5421752;26;20451;-66
2024/04/24 00:50:42;;;;;;;2.55;2.35;;;;;;;;;;5419575;26;20096;-66
2024/04/24 00:53:08;;;;;;;4.47;2.55;;;;;;;;;;5419841;26;19994;-66
2024/04/24 00:55:35;;;;;;;3.55;3.00;;;;;;;;;;5423750;26;19999;-67
2024/04/24 00:58:01;;;;;;;3.58;2.28;;;;;;;;;;5420962;26;20010;-65
2024/04/24 01:00:27;;;;;;;5.47;2.33;;;;;;;;;;5387007;26;20770;-66
2024/04/24 01:02:53;;;;;;;3.13;2.22;;;;;;;;;;5423709;26;19999;-66
2024/04/24 01:05:19;;;;;;;3.63;2.20;;;;;;;;;;5416300;26;20004;-66
2024/04/24 01:07:46;;;;;;;2.47;2.28;;;;;;;;;;5423010;26;20537;-65
2024/04/24 01:10:13;;;;;;;5.50;2.92;;;;;;;;;;5419824;26;20505;-65
2024/04/24 01:12:39;;;;;;;2.67;2.22;;;;;;;;;;5414182;26;20043;-66
2024/04/24 01:15:05;;;;;;;4.63;2.55;;;;;;;;;;5424905;26;20339;-66
2024/04/24 01:17:31;;;;;;;2.97;2.45;;;;;;;;;;5426918;26;20223;-66
2024/04/24 01:19:58;;;;;;;4.28;2.42;;;;;;;;;;5414058;26;19999;-66
2024/04/24 01:22:27;;;;;;;4.13;2.35;;;;;;;;;;5423422;26;20388;-66
2024/04/24 01:25:06;;;;;;;5.28;2.22;;;;;;;;;;5421145;26;20006;-66
2024/04/24 01:27:32;;;;;;;7.95;3.30;;;;;;;;;;5426547;26;19995;-66
2024/04/24 01:29:58;;;;;;;4.05;2.53;;;;;;;;;;5415345;26;19999;-66
2024/04/24 01:32:25;;;;;;;2.95;2.65;;;;;;;;;;5414077;26;20355;-67
2024/04/24 01:34:51;;;;;;;3.47;2.28;;;;;;;;;;5397276;26;20472;-67
2024/04/24 01:37:17;;;;;;;5.85;2.80;;;;;;;;;;5394903;26;20049;-67
2024/04/24 01:39:43;;;;;;;3.78;2.40;;;;;;;;;;5368183;26;20502;-66
2024/04/24 01:42:09;;;;;;;2.50;2.30;;;;;;;;;;5381451;26;20003;-66
2024/04/24 01:44:35;;;;;;;5.50;2.50;;;;;;;;;;5424780;26;20017;-66
2024/04/24 01:47:01;;;;;;;4.18;2.42;;;;;;;;;;5411791;26;20011;-66
2024/04/24 01:49:28;;;;;;;3.55;2.53;;;;;;;;;;5424018;26;20091;-67
2024/04/24 01:51:54;;;;;;;4.82;2.70;;;;;;;;;;5418034;26;20392;-66
2024/04/24 01:54:20;;;;;;;5.93;2.30;;;;;;;;;;5421859;26;20443;-66
2024/04/24 01:56:46;;;;;;;3.58;2.10;;;;;;;;;;5420925;26;20242;-66
2024/04/24 01:59:12;;;;;;;6.22;2.95;;;;;;;;;;5392624;26;20545;-66
2024/04/24 02:01:38;;;;;;;3.00;2.47;;;;;;;;;;5417091;26;20487;-67
2024/04/24 02:04:04;;;;;;;8.10;2.17;;;;;;;;;;5435538;26;20382;-66
2024/04/24 02:06:31;;;;;;;3.63;1.95;;;;;;;;;;5399936;26;20013;-66
2024/04/24 02:08:57;;;;;;;4.00;2.50;;;;;;;;;;5413132;26;19996;-66
2024/04/24 02:11:23;;;;;;;3.45;2.63;;;;;;;;;;5402124;26;20072;-67
2024/04/24 02:13:49;;;;;;;2.50;2.30;;;;;;;;;;5425776;26;20006;-65
2024/04/24 02:16:15;;;;;;;9.45;2.95;;;;;;;;;;5411940;26;20042;-67
2024/04/24 02:18:43;;;;;;;6.63;2.25;;;;;;;;;;5420708;26;20046;-66
2024/04/24 02:21:09;;;;;;;4.15;1.85;;;;;;;;;;5423434;26;20006;-67
2024/04/24 02:23:36;;;;;;;2.50;2.03;;;;;;;;;;5420158;26;20480;-66
2024/04/24 02:26:08;;;;;;;2.80;2.00;;;;;;;;;;5418667;26;20007;-67
2024/04/24 02:28:35;;;;;;;2.53;2.00;;;;;;;;;;5423785;26;20009;-66
2024/04/24 02:31:03;;;;;;;2.40;1.75;;;;;;;;;;5421616;26;20014;-66
2024/04/24 02:33:29;;;;;;;2.60;2.40;;;;;;;;;;5429667;26;20064;-67
2024/04/24 02:35:55;;;;;;;2.85;2.45;;;;;;;;;;5422583;26;20437;-67
2024/04/24 02:38:22;;;;;;;3.00;2.63;;;;;;;;;;5399810;26;20642;-66
2024/04/24 02:40:48;;;;;;;4.05;2.95;;;;;;;;;;5424402;26;20018;-66
2024/04/24 02:43:14;;;;;;;4.05;2.55;;;;;;;;;;5427168;26;19995;-66
2024/04/24 02:45:40;;;;;;;2.80;2.30;;;;;;;;;;5421597;26;20011;-66
2024/04/24 02:48:07;;;;;;;2.28;2.08;;;;;;;;;;5427522;26;20472;-66
2024/04/24 02:50:33;;;;;;;6.35;2.60;;;;;;;;;;5426130;26;20003;-66
2024/04/24 02:52:59;;;;;;;4.40;2.20;;;;;;;;;;5390298;26;20423;-66
2024/04/24 02:55:25;;;;;;;3.00;2.47;;;;;;;;;;5421998;26;20013;-66
2024/04/24 02:57:52;;;;;;;2.47;2.28;;;;;;;;;;5394128;26;19995;-71
2024/04/24 03:00:18;;;;;;;3.30;2.50;;;;;;;;;;5419396;26;19995;-67
2024/04/24 03:02:44;;;;;;;5.70;2.78;;;;;;;;;;5418636;26;20075;-66
2024/04/24 03:05:10;;;;;;;2.92;2.42;;;;;;;;;;5424289;26;20003;-67
2024/04/24 03:07:37;;;;;;;4.85;2.28;;;;;;;;;;5392635;26;20000;-66
2024/04/24 03:10:03;;;;;;;6.70;2.33;;;;;;;;;;5401702;26;20525;-66
2024/04/24 03:12:29;;;;;;;2.55;2.28;;;;;;;;;;5426089;26;20107;-66
2024/04/24 03:14:56;;;;;;;3.90;1.58;;;;;;;;;;5427209;26;20052;-66
2024/04/24 03:17:22;;;;;;;4.93;2.08;;;;;;;;;;5393456;26;20010;-66
2024/04/24 03:19:48;;;;;;;2.42;2.08;;;;;;;;;;5420244;26;20463;-66
2024/04/24 03:22:14;;;;;;;8.00;2.55;;;;;;;;;;5426774;26;20687;-66
2024/04/24 03:24:40;;;;;;;5.55;2.55;;;;;;;;;;5424303;26;20462;-67
2024/04/24 03:27:06;;;;;;;6.05;2.17;;;;;;;;;;5389765;26;20339;-66
2024/04/24 03:29:32;;;;;;;2.83;2.25;;;;;;;;;;5398504;26;19996;-66
2024/04/24 03:31:59;;;;;;;4.80;2.40;;;;;;;;;;5427960;26;20003;-66
2024/04/24 03:34:25;;;;;;;4.80;2.35;;;;;;;;;;5400291;26;20009;-66
2024/04/24 03:36:51;;;;;;;3.05;2.15;;;;;;;;;;5425891;26;20021;-66
2024/04/24 03:39:17;;;;;;;8.02;2.35;;;;;;;;;;5423683;26;20070;-66
2024/04/24 03:41:43;;;;;;;7.82;2.60;;;;;;;;;;5436065;26;20084;-66
2024/04/24 03:44:09;;;;;;;4.45;2.33;;;;;;;;;;5426456;26;20013;-66
2024/04/24 03:46:36;;;;;;;4.47;2.17;;;;;;;;;;5422322;26;20013;-66
2024/04/24 03:49:02;;;;;;;3.38;2.42;;;;;;;;;;5423100;26;20471;-66
2024/04/24 03:51:28;;;;;;;4.05;2.50;;;;;;;;;;5427517;26;20002;-66
2024/04/24 03:53:54;;;;;;;13.77;2.47;;;;;;;;;;5423695;26;20003;-66
2024/04/24 03:56:20;;;;;;;3.65;2.28;;;;;;;;;;5395455;26;20505;-66
2024/04/24 03:58:47;;;;;;;7.38;2.78;;;;;;;;;;5408034;26;19998;-66
2024/04/24 04:01:14;;;;;;;8.63;2.65;;;;;;;;;;5421907;26;20025;-66
2024/04/24 04:03:41;;;;;;;11.77;2.75;;;;;;;;;;5425137;26;20054;-66
2024/04/24 04:06:07;;;;;;;3.17;2.00;;;;;;;;;;5427891;26;20014;-65
2024/04/24 04:08:33;;;;;;;2.42;2.10;;;;;;;;;;5428913;26;20465;-66
2024/04/24 04:10:59;;;;;;;2.53;2.33;;;;;;;;;;5428934;26;19999;-66
2024/04/24 04:13:25;;;;;;;8.10;2.55;;;;;;;;;;5418769;26;20488;-66
2024/04/24 04:15:51;;;;;;;3.33;2.63;;;;;;;;;;5419179;26;20106;-68
2024/04/24 04:18:17;;;;;;;3.53;2.58;;;;;;;;;;5425503;26;20605;-66
2024/04/24 04:20:43;;;;;;;2.63;2.42;;;;;;;;;;5424503;26;20017;-65
2024/04/24 04:23:10;;;;;;;4.30;2.90;;;;;;;;;;5426099;26;20003;-66
2024/04/24 04:25:36;;;;;;;10.43;2.83;;;;;;;;;;5428743;26;20003;-66
2024/04/24 04:28:02;;;;;;;2.60;2.40;;;;;;;;;;5423697;26;20009;-66
2024/04/24 04:30:28;;;;;;;6.28;2.55;;;;;;;;;;5427303;26;20003;-66
2024/04/24 04:32:54;;;;;;;3.30;2.60;;;;;;;;;;5419849;26;19999;-66
2024/04/24 04:35:20;;;;;;;7.85;2.33;;;;;;;;;;5422302;26;19995;-66
2024/04/24 04:37:46;;;;;;;5.57;2.40;;;;;;;;;;5421611;26;20011;-66
2024/04/24 04:40:13;;;;;;;3.10;2.58;;;;;;;;;;5406114;26;20007;-66
2024/04/24 04:42:40;;;;;;;4.35;2.70;;;;;;;;;;5421228;26;20356;-66
2024/04/24 04:45:06;;;;;;;6.00;2.67;;;;;;;;;;5422009;26;20030;-66
2024/04/24 04:47:32;;;;;;;3.60;2.47;;;;;;;;;;5398574;26;19995;-66
2024/04/24 04:49:58;;;;;;;3.90;2.13;;;;;;;;;;5415241;26;20365;-66
2024/04/24 04:52:25;;;;;;;5.80;2.60;;;;;;;;;;5416831;26;20041;-66
2024/04/24 04:54:51;;;;;;;10.32;2.38;;;;;;;;;;5420252;26;19999;-66
2024/04/24 04:57:17;;;;;;;4.07;2.72;;;;;;;;;;5392941;26;20006;-66
2024/04/24 04:59:43;;;;;;;5.13;2.55;;;;;;;;;;5421980;26;19995;-66
2024/04/24 05:02:10;;;;;;;3.53;2.47;;;;;;;;;;5426762;26;20002;-66
2024/04/24 05:04:36;;;;;;;5.93;3.22;;;;;;;;;;5428421;26;20031;-66
2024/04/24 05:07:02;;;;;;;3.13;1.98;;;;;;;;;;5415715;26;20054;-66
2024/04/24 05:09:29;;;;;;;3.92;2.35;;;;;;;;;;5413652;26;20039;-67
2024/04/24 05:11:56;;;;;;;3.05;2.17;;;;;;;;;;5402569;26;20013;-67
2024/04/24 05:14:22;;;;;;;2.55;2.28;;;;;;;;;;5423654;26;20064;-66
2024/04/24 05:16:48;;;;;;;2.83;2.22;;;;;;;;;;5422137;26;20006;-67
2024/04/24 05:19:15;;;;;;;4.25;2.35;;;;;;;;;;5434128;26;20010;-66
2024/04/24 05:21:41;;;;;;;3.17;2.38;;;;;;;;;;5404383;26;19990;-66
2024/04/24 05:24:07;;;;;;;2.65;2.28;;;;;;;;;;5385971;26;19999;-66
2024/04/24 05:29:18;;;;;;;5.90;2.80;;;;;;;;;;5414339;26;20079;-66
2024/04/24 05:31:45;;;;;;;2.83;2.58;;;;;;;;;;5414359;26;20007;-67
2024/04/24 05:34:11;;;;;;;3.28;2.53;;;;;;;;;;5400692;26;20682;-67
2024/04/24 05:36:37;;;;;;;2.65;2.30;;;;;;;;;;5426722;26;19991;-66
2024/04/24 05:39:03;;;;;;;8.43;2.63;;;;;;;;;;5388382;26;20083;-66
2024/04/24 05:41:30;;;;;;;4.32;2.97;;;;;;;;;;5400627;26;19999;-67
2024/04/24 05:43:56;;;;;;;3.50;2.53;;;;;;;;;;5433710;26;19999;-67
2024/04/24 05:46:22;;;;;;;4.43;2.60;;;;;;;;;;5429710;26;20655;-67
2024/04/24 05:48:48;;;;;;;2.95;2.53;;;;;;;;;;5403757;26;20003;-66
2024/04/24 05:51:14;;;;;;;4.03;2.20;;;;;;;;;;5427569;26;20062;-66
2024/04/24 05:53:40;;;;;;;3.88;2.60;;;;;;;;;;5435114;26;19999;-66
2024/04/24 05:56:06;;;;;;;5.70;2.58;;;;;;;;;;5404666;26;20478;-67
2024/04/24 05:58:32;;;;;;;3.47;2.17;;;;;;;;;;5415047;26;19995;-69
2024/04/24 06:00:59;;;;;;;4.25;2.88;;;;;;;;;;5427574;26;20007;-68
2024/04/24 06:03:25;;;;;;;7.28;2.40;;;;;;;;;;5405193;26;20449;-66
2024/04/24 06:05:51;;;;;;;2.63;2.22;;;;;;;;;;5434324;26;20018;-66
2024/04/24 06:08:17;;;;;;;4.57;2.60;;;;;;;;;;5437202;26;20092;-66
2024/04/24 06:10:43;;;;;;;2.90;2.63;;;;;;;;;;5434786;26;20013;-67
2024/04/24 06:13:09;;;;;;;5.63;2.83;;;;;;;;;;5434481;26;20475;-69
2024/04/24 06:15:36;;;;;;;2.53;2.30;;;;;;;;;;5432772;26;20068;-67
2024/04/24 06:18:02;;;;;;;5.40;2.40;;;;;;;;;;5435942;26;20006;-67
2024/04/24 06:20:28;;;;;;;13.63;2.80;;;;;;;;;;5411425;26;20238;-67
2024/04/24 06:22:54;;;;;;;7.35;2.53;;;;;;;;;;5428399;26;19996;-66
2024/04/24 06:25:20;;;;;;;5.68;2.88;;;;;;;;;;5423412;26;21279;-65
2024/04/24 06:27:46;;;;;;;6.88;2.55;;;;;;;;;;5429859;26;20064;-67
2024/04/24 06:30:12;;;;;;;4.43;2.60;;;;;;;;;;5435988;26;20034;-66
2024/04/24 06:32:39;;;;;;;3.50;2.08;;;;;;;;;;5435155;26;20014;-66
2024/04/24 06:35:05;;;;;;;8.13;2.83;;;;;;;;;;5410508;26;20003;-66
2024/04/24 06:37:31;;;;;;;5.35;2.30;;;;;;;;;;5429878;26;20334;-65
2024/04/24 06:39:57;;;;;;;8.60;2.38;;;;;;;;;;5431155;26;20046;-66
2024/04/24 06:42:23;;;;;;;7.15;2.47;;;;;;;;;;5404294;26;19995;-67
2024/04/24 06:44:51;;;;;;;2.53;2.10;;;;;;;;;;5424808;26;21288;-67
2024/04/24 06:47:17;;;;;;;3.28;2.65;;;;;;;;;;5430045;26;19999;-66
2024/04/24 06:49:43;;;;;;;8.27;3.42;;;;;;;;;;5426347;26;20009;-66
2024/04/24 06:52:10;;;;;;;8.32;2.95;;;;;;;;;;5428608;26;19999;-66
2024/04/24 06:54:36;;;;;;;6.25;2.80;;;;;;;;;;5433514;26;20464;-66
2024/04/24 06:57:02;;;;;;;6.80;2.40;;;;;;;;;;5430865;26;20447;-66
2024/04/24 06:59:28;;;;;;;3.33;2.42;;;;;;;;;;5430762;26;20085;-66
2024/04/24 07:01:54;;;;;;;4.25;2.92;;;;;;;;;;5434060;26;20031;-66
2024/04/24 07:04:21;;;;;;;2.80;2.53;;;;;;;;;;5430744;26;21064;-66
2024/04/24 07:06:48;;;;;;;4.13;3.20;;;;;;;;;;5417986;26;20040;-66
2024/04/24 07:09:14;;;;;;;2.67;2.42;;;;;;;;;;5433302;26;19999;-66
2024/04/24 07:11:40;;;;;;;8.18;2.58;;;;;;;;;;5405534;26;20009;-65
2024/04/24 07:14:06;;;;;;;5.05;2.20;;;;;;;;;;5402866;26;20015;-65
2024/04/24 07:16:33;;;;;;;6.13;2.78;;;;;;;;;;5427453;26;19999;-65
2024/04/24 07:19:00;;;;;;;4.20;2.50;;;;;;;;;;5429677;26;20460;-65
2024/04/24 07:21:27;;;;;;;6.90;2.72;;;;;;;;;;5431196;26;20014;-65
2024/04/24 07:23:53;;;;;;;11.75;3.08;;;;;;;;;;5407457;26;20041;-65
2024/04/24 07:26:19;;;;;;;5.15;2.30;;;;;;;;;;5423564;26;19994;-65
2024/04/24 07:28:45;;;;;;;4.00;2.45;;;;;;;;;;5427956;26;20002;-66
2024/04/24 07:31:11;;;;;;;4.30;2.70;;;;;;;;;;5424705;26;20003;-65
2024/04/24 07:33:38;;;;;;;11.52;2.85;;;;;;;;;;5430095;26;20144;-65
2024/04/24 07:36:04;;;;;;;11.90;2.60;;;;;;;;;;5422249;26;20013;-65
2024/04/24 07:38:30;;;;;;;3.85;2.40;;;;;;;;;;5437556;26;19998;-65
2024/04/24 07:40:56;;;;;;;7.07;2.97;;;;;;;;;;5402284;26;19995;-65
2024/04/24 07:43:22;;;;;;;5.07;2.40;;;;;;;;;;5400426;26;20132;-65
2024/04/24 07:45:48;;;;;;;5.78;2.67;;;;;;;;;;5425302;26;20391;-65
2024/04/24 07:48:17;;;;;;;3.70;2.67;;;;;;;;;;5409716;26;20075;-66
2024/04/24 07:50:45;;;;;;;8.40;3.20;;;;;;;;;;5435481;26;20006;-66
2024/04/24 07:53:13;;;;;;;7.75;3.95;;;;;;;;;;5435981;26;20443;-66
2024/04/24 07:55:39;;;;;;;5.63;2.70;;;;;;;;;;5427762;26;20058;-66
2024/04/24 07:58:05;;;;;;;4.68;2.95;;;;;;;;;;5435862;26;20024;-65
2024/04/24 08:00:32;;;;;;;5.70;2.70;;;;;;;;;;5425218;26;20076;-65
2024/04/24 08:02:58;;;;;;;7.80;2.45;;;;;;;;;;5436134;26;20011;-65
2024/04/24 08:05:24;;;;;;;4.20;2.38;;;;;;;;;;5438362;26;20519;-66
2024/04/24 08:07:51;;;;;;;7.80;2.67;;;;;;;;;;5436849;26;20014;-66
2024/04/24 08:10:17;;;;;;;2.95;2.30;;;;;;;;;;5415264;26;19999;-66
2024/04/24 08:12:44;;;;;;;4.78;2.30;;;;;;;;;;5422865;26;20831;-65
2024/04/24 08:15:10;;;;;;;6.72;3.10;;;;;;;;;;5439120;26;20017;-66
2024/04/24 08:17:36;;;;;;;2.40;2.20;;;;;;;;;;5430900;26;20008;-65
2024/04/24 08:20:03;;;;;;;4.78;3.00;;;;;;;;;;5436514;26;20010;-66
2024/04/24 08:22:29;;;;;;;7.75;2.70;;;;;;;;;;5418529;26;20006;-65
2024/04/24 08:24:56;;;;;;;5.95;3.08;;;;;;;;;;5424210;26;20449;-65
2024/04/24 08:27:22;;;;;;;4.32;2.70;;;;;;;;;;5395766;26;19999;-66
2024/04/24 08:29:48;;;;;;;4.50;2.45;;;;;;;;;;5412313;26;20318;-66
2024/04/24 08:32:14;;;;;;;6.07;2.47;;;;;;;;;;5425843;26;19999;-66
2024/04/24 08:34:41;;;;;;;5.28;2.22;;;;;;;;;;5432045;26;19995;-66
2024/04/24 08:37:07;;;;;;;6.50;3.38;;;;;;;;;;5419841;26;20022;-66
2024/04/24 08:39:33;;;;;;;5.35;3.13;;;;;;;;;;5441979;26;22206;-66
2024/04/24 08:41:59;;;;;;;7.05;2.70;;;;;;;;;;5378781;26;19995;-66
2024/04/24 08:44:27;;;;;;;7.95;3.00;;;;;;;;;;5437563;26;20027;-66
2024/04/24 08:46:55;;;;;;;5.65;3.10;;;;;;;;;;5431195;26;20010;-65
2024/04/24 08:49:22;;;;;;;7.05;3.08;;;;;;;;;;5418858;26;20004;-66
2024/04/24 08:51:49;;;;;;;5.20;2.97;;;;;;;;;;5434129;26;20013;-66
2024/04/24 08:54:16;;;;;;;5.35;2.47;;;;;;;;;;5397067;26;20010;-66
2024/04/24 08:56:48;;;;;;;9.18;2.53;;;;;;;;;;5437362;26;20503;-66
2024/04/24 08:59:14;;;;;;;7.28;2.67;;;;;;;;;;5425647;26;19991;-66
2024/04/24 09:01:41;;;;;;;6.20;2.88;;;;;;;;;;5396919;26;20003;-65
2024/04/24 09:04:07;;;;;;;10.95;2.88;;;;;;;;;;5397343;26;20454;-65
2024/04/24 09:06:34;;;;;;;6.30;3.03;;;;;;;;;;5434145;26;19999;-65
2024/04/24 09:09:01;;;;;;;9.77;2.80;;;;;;;;;;5430930;26;19998;-65
2024/04/24 09:11:27;;;;;;;5.18;2.85;;;;;;;;;;5398319;26;20153;-66
2024/04/24 09:13:54;;;;;;;9.18;3.45;;;;;;;;;;5439322;26;20465;-65
2024/04/24 09:16:26;;;;;;;5.53;2.60;;;;;;;;;;5434464;26;20006;-65
2024/04/24 09:18:59;;;;;;;4.47;2.97;;;;;;;;;;5431521;26;20060;-65
2024/04/24 09:21:26;;;;;;;4.50;2.20;;;;;;;;;;5392227;26;19999;-65
2024/04/24 09:23:52;;;;;;;11.55;3.28;;;;;;;;;;5435987;26;19995;-65
2024/04/24 09:26:18;;;;;;;3.67;2.53;;;;;;;;;;5435240;26;20010;-65
2024/04/24 09:28:45;;;;;;;5.90;2.67;;;;;;;;;;5425048;26;20457;-65
2024/04/24 09:31:12;;;;;;;5.43;2.80;;;;;;;;;;5433715;26;20006;-66
2024/04/24 09:33:39;;;;;;;5.22;2.95;;;;;;;;;;5436712;26;20071;-66
2024/04/24 09:36:06;;;;;;;7.07;2.78;;;;;;;;;;5403302;26;19998;-64
2024/04/24 09:38:33;;;;;;;8.23;2.97;;;;;;;;;;5429985;26;20073;-66
2024/04/24 09:41:02;;;;;;;5.85;3.22;;;;;;;;;;5442866;26;20556;-65
2024/04/24 09:43:29;;;;;;;10.30;3.75;;;;;;;;;;5409311;26;20989;-65
2024/04/24 09:45:55;;;;;;;9.95;3.30;;;;;;;;;;5436300;26;19999;-66
2024/04/24 09:48:22;;;;;;;8.65;3.30;;;;;;;;;;5423380;26;20002;-66
2024/04/24 09:50:50;;;;;;;10.48;3.00;;;;;;;;;;5433911;26;20479;-65
2024/04/24 09:53:17;;;;;;;14.65;3.10;;;;;;;;;;5401463;26;20031;-66
2024/04/24 09:55:45;;;;;;;7.22;2.90;;;;;;;;;;5414950;26;20029;-65
2024/04/24 09:58:12;;;;;;;4.38;2.80;;;;;;;;;;5430196;26;19999;-65
2024/04/24 10:00:39;;;;;;;10.63;3.08;;;;;;;;;;5439729;26;20043;-65
2024/04/24 10:03:10;;;;;;;10.73;3.05;;;;;;;;;;5434292;26;19999;-65
2024/04/24 10:05:38;;;;;;;5.45;3.20;;;;;;;;;;5408533;26;20065;-65
2024/04/24 10:08:05;;;;;;;6.68;2.97;;;;;;;;;;5430879;26;20320;-65
2024/04/24 10:10:42;;;;;;;6.47;3.00;;;;;;;;;;5407198;26;20013;-66
2024/04/24 10:13:09;;;;;;;10.90;3.97;;;;;;;;;;5442285;26;20002;-65
2024/04/24 10:15:52;;;;;;;7.00;4.40;;;;;;;;;;5411800;26;19998;-65
2024/04/24 10:18:18;;;;;;;6.93;3.00;;;;;;;;;;5430621;26;20002;-66
2024/04/24 10:20:45;;;;;;;7.95;3.42;;;;;;;;;;5408283;26;20009;-65
2024/04/24 10:23:12;;;;;;;5.53;3.20;;;;;;;;;;5381721;26;20000;-66
2024/04/24 10:25:38;;;;;;;9.07;3.53;;;;;;;;;;5436556;26;19999;-66
2024/04/24 10:28:05;;;;;;;10.82;3.63;;;;;;;;;;5412473;26;19999;-66
2024/04/24 10:30:31;;;;;;;9.73;3.03;;;;;;;;;;5432237;26;20003;-66
2024/04/24 10:32:57;;;;;;;9.05;3.42;;;;;;;;;;5423939;26;19998;-65
2024/04/24 10:35:27;;;;;;;3.78;2.83;;;;;;;;;;5407251;26;20018;-66
2024/04/24 10:37:57;;;;;;;8.55;3.67;;;;;;;;;;5426271;26;20470;-66
2024/04/24 10:40:27;;;;;;;8.00;3.55;;;;;;;;;;5398878;26;19999;-66
2024/04/24 10:42:54;;;;;;;8.07;3.50;;;;;;;;;;5428844;26;20340;-66
2024/04/24 10:45:20;;;;;;;5.35;3.42;;;;;;;;;;5430183;26;20427;-66
2024/04/24 10:47:47;;;;;;;5.57;3.58;;;;;;;;;;5411258;26;20014;-66
2024/04/24 10:50:14;;;;;;;5.10;2.80;;;;;;;;;;5434946;26;19991;-66
2024/04/24 10:52:49;;;;;;;4.20;2.63;;;;;;;;;;5433309;26;20038;-66
2024/04/24 10:55:19;;;;;;;4.15;2.97;;;;;;;;;;5432305;26;20009;-66
2024/04/24 10:57:46;;;;;;;6.20;3.42;;;;;;;;;;5429947;26;20976;-66
2024/04/24 11:00:15;;;;;;;6.05;3.00;;;;;;;;;;5399745;26;20011;-65
2024/04/24 11:02:41;;;;;;;11.90;3.40;;;;;;;;;;5394687;26;20002;-65
2024/04/24 11:05:09;;;;;;;7.68;3.60;;;;;;;;;;5418319;26;20458;-66
2024/04/24 11:07:35;;;;;;;7.45;3.22;;;;;;;;;;5413031;26;20795;-66
2024/04/24 11:10:03;;;;;;;3.40;2.60;;;;;;;;;;5433115;26;20014;-66
2024/04/24 11:12:29;;;;;;;6.45;3.40;;;;;;;;;;5424331;26;20497;-66
2024/04/24 11:14:55;;;;;;;8.88;3.50;;;;;;;;;;5396276;26;20007;-65
2024/04/24 11:17:25;;;;;;;6.10;3.28;;;;;;;;;;5418859;26;20018;-66
2024/04/24 11:19:51;;;;;;;5.15;3.10;;;;;;;;;;5416582;26;20041;-66
2024/04/24 11:22:26;;;;;;;4.03;2.95;;;;;;;;;;5418225;26;20003;-66
2024/04/24 11:24:55;;;;;;;5.97;3.65;;;;;;;;;;5405348;26;19991;-65
2024/04/24 11:27:24;;;;;;;6.13;2.78;;;;;;;;;;5415465;26;20006;-66
2024/04/24 11:29:52;;;;;;;5.63;2.70;;;;;;;;;;5412692;26;19991;-66
2024/04/24 11:32:19;;;;;;;5.60;3.13;;;;;;;;;;5425290;26;20007;-66
2024/04/24 11:34:46;;;;;;;6.25;2.97;;;;;;;;;;5425710;26;19991;-66
2024/04/24 11:37:12;;;;;;;7.07;2.83;;;;;;;;;;5427097;26;19998;-66
2024/04/24 11:39:38;;;;;;;8.15;3.95;;;;;;;;;;5389187;26;20585;-66
2024/04/24 11:42:05;;;;;;;4.85;3.90;;;;;;;;;;5423775;26;20450;-66
2024/04/24 11:44:32;;;;;;;3.63;2.80;;;;;;;;;;5419593;26;19998;-65
2024/04/24 11:46:58;;;;;;;8.60;3.33;;;;;;;;;;5429816;26;20014;-66
2024/04/24 11:49:25;;;;;;;3.00;2.67;;;;;;;;;;5391724;26;20073;-66
2024/04/24 11:51:52;;;;;;;4.32;3.03;;;;;;;;;;5430371;26;19998;-66
2024/04/24 11:54:19;;;;;;;8.30;2.90;;;;;;;;;;5392962;26;20033;-66
2024/04/24 11:56:45;;;;;;;3.25;2.92;;;;;;;;;;5425143;26;20014;-66
2024/04/24 11:59:15;;;;;;;5.15;3.13;;;;;;;;;;5405726;26;20496;-67
2024/04/24 12:01:42;;;;;;;7.15;2.70;;;;;;;;;;5423989;26;20030;-67
2024/04/24 12:04:08;;;;;;;6.43;2.60;;;;;;;;;;5391450;26;20439;-67
2024/04/24 12:06:39;;;;;;;5.38;2.85;;;;;;;;;;5419917;26;19995;-66
2024/04/24 12:09:05;;;;;;;4.47;2.90;;;;;;;;;;5432768;26;20006;-66
2024/04/24 12:11:41;;;;;;;9.55;2.97;;;;;;;;;;5398649;26;20395;-66
2024/04/24 12:14:08;;;;;;;6.03;2.50;;;;;;;;;;5428071;26;20538;-66
2024/04/24 12:16:34;;;;;;;4.15;2.50;;;;;;;;;;5419127;26;20452;-65
2024/04/24 12:19:03;;;;;;;4.28;2.67;;;;;;;;;;5424772;26;20450;-66
2024/04/24 12:21:29;;;;;;;3.92;2.53;;;;;;;;;;5423727;26;19999;-65
2024/04/24 12:23:55;;;;;;;3.30;2.35;;;;;;;;;;5422128;26;20325;-65
2024/04/24 12:26:21;;;;;;;9.05;2.95;;;;;;;;;;5387809;26;20093;-66
2024/04/24 12:28:47;;;;;;;7.18;2.42;;;;;;;;;;5432144;26;20017;-66
2024/04/24 12:31:14;;;;;;;9.18;2.95;;;;;;;;;;5424506;26;20075;-65
2024/04/24 12:33:40;;;;;;;3.95;2.40;;;;;;;;;;5421554;26;20028;-66
2024/04/24 12:36:07;;;;;;;7.75;2.83;;;;;;;;;;5432280;26;20071;-66
2024/04/24 12:38:34;;;;;;;7.07;2.60;;;;;;;;;;5394244;26;19995;-66
2024/04/24 12:41:00;;;;;;;8.10;3.17;;;;;;;;;;5436142;26;20462;-66
2024/04/24 12:43:26;;;;;;;4.03;2.65;;;;;;;;;;5434575;26;20614;-65
2024/04/24 12:45:52;;;;;;;4.60;2.60;;;;;;;;;;5430539;26;20563;-65
2024/04/24 12:48:18;;;;;;;7.55;3.00;;;;;;;;;;5431724;26;20010;-66
2024/04/24 12:50:44;;;;;;;10.90;3.00;;;;;;;;;;5428646;26;20584;-64
2024/04/24 12:53:11;;;;;;;9.00;4.07;;;;;;;;;;5414687;26;19995;-65
2024/04/24 12:55:37;;;;;;;4.82;3.00;;;;;;;;;;5406693;26;20039;-65
2024/04/24 12:58:03;;;;;;;6.05;3.72;;;;;;;;;;5424110;26;20047;-66
2024/04/24 13:00:29;;;;;;;9.77;4.53;;;;;;;;;;5415288;26;20454;-65
2024/04/24 13:02:55;;;;;;;7.50;2.97;;;;;;;;;;5417656;26;20335;-64
2024/04/24 13:05:21;;;;;;;3.88;3.20;;;;;;;;;;5424528;26;20011;-65
2024/04/24 13:07:48;;;;;;;3.83;3.25;;;;;;;;;;5433686;26;19990;-66
2024/04/24 13:10:14;;;;;;;5.60;3.65;;;;;;;;;;5429444;26;20833;-65
2024/04/24 13:12:41;;;;;;;4.20;2.97;;;;;;;;;;5406924;26;20079;-64
2024/04/24 13:15:07;;;;;;;6.75;3.35;;;;;;;;;;5400855;26;20058;-65
2024/04/24 13:17:33;;;;;;;6.03;3.83;;;;;;;;;;5404954;26;20455;-65
2024/04/24 13:20:01;;;;;;;8.15;3.20;;;;;;;;;;5432729;26;20488;-64
2024/04/24 13:22:27;;;;;;;8.75;4.10;;;;;;;;;;5417875;26;20010;-65
2024/04/24 13:24:53;;;;;;;9.57;3.70;;;;;;;;;;5392478;26;20425;-66
2024/04/24 13:27:19;;;;;;;7.35;3.67;;;;;;;;;;5428166;26;19999;-66
2024/04/24 13:29:46;;;;;;;7.07;4.28;;;;;;;;;;5434443;26;20362;-66
2024/04/24 13:32:12;;;;;;;9.50;3.83;;;;;;;;;;5420484;26;20817;-65
2024/04/24 13:34:38;;;;;;;8.65;3.47;;;;;;;;;;5403683;26;20656;-66
2024/04/24 13:37:04;;;;;;;8.98;3.53;;;;;;;;;;5423627;26;20459;-65
2024/04/24 13:39:32;;;;;;;6.63;3.40;;;;;;;;;;5393504;26;19996;-66
2024/04/24 13:41:58;;;;;;;7.03;3.72;;;;;;;;;;5431568;26;20035;-66
2024/04/24 13:44:24;;;;;;;7.03;3.78;;;;;;;;;;5422987;26;20363;-66
2024/04/24 13:46:50;;;;;;;8.93;4.00;;;;;;;;;;5420061;26;20431;-66
2024/04/24 13:49:16;;;;;;;9.68;3.92;;;;;;;;;;5422753;26;20307;-66
2024/04/24 13:51:42;;;;;;;4.57;3.65;;;;;;;;;;5423667;26;19994;-67
2024/04/24 13:54:09;;;;;;;8.82;4.28;;;;;;;;;;5435880;26;20499;-66
2024/04/24 13:56:35;;;;;;;8.98;3.80;;;;;;;;;;5428404;26;20056;-66
2024/04/24 13:59:01;;;;;;;10.45;3.55;;;;;;;;;;5424834;26;20003;-66
2024/04/24 14:01:27;;;;;;;9.07;4.03;;;;;;;;;;5399499;26;20003;-66
2024/04/24 14:03:53;;;;;;;12.18;4.38;;;;;;;;;;5428231;26;20050;-66
2024/04/24 14:06:19;;;;;;;7.40;3.60;;;;;;;;;;5430527;26;20050;-64
2024/04/24 14:08:50;;;;;;;13.85;4.90;;;;;;;;;;5429946;26;20101;-66
2024/04/24 14:11:16;;;;;;;6.32;3.88;;;;;;;;;;5432820;26;20830;-66
2024/04/24 14:13:42;;;;;;;4.47;3.05;;;;;;;;;;5427477;26;20712;-66
2024/04/24 14:16:14;;;;;;;7.25;4.07;;;;;;;;;;5427492;26;20567;-66
2024/04/24 14:18:41;;;;;;;9.18;3.80;;;;;;;;;;5414821;26;20007;-66
2024/04/24 14:21:08;;;;;;;4.20;3.45;;;;;;;;;;5424621;26;20635;-66
2024/04/24 14:23:34;;;;;;;5.75;3.28;;;;;;;;;;5375496;26;20630;-66
2024/04/24 14:26:01;;;;;;;5.70;3.17;;;;;;;;;;5385347;26;20011;-65
2024/04/24 14:28:27;;;;;;;10.38;3.88;;;;;;;;;;5399142;26;20427;-65
2024/04/24 14:30:53;;;;;;;10.77;3.58;;;;;;;;;;5432126;26;20400;-66
2024/04/24 14:33:19;;;;;;;5.22;3.75;;;;;;;;;;5431043;26;20059;-66
2024/04/24 14:35:45;;;;;;;9.25;3.20;;;;;;;;;;5396785;26;19999;-65
2024/04/24 14:38:11;;;;;;;6.25;3.30;;;;;;;;;;5426448;26;19999;-66
2024/04/24 14:40:37;;;;;;;8.82;3.47;;;;;;;;;;5434469;26;20474;-65
2024/04/24 14:43:04;;;;;;;10.20;3.25;;;;;;;;;;5432048;26;20014;-66